Time;durP1;ratioP1;P1;durP2;ratioP2;P2;SDS_P1;SDS_P2;PMS_P1;PMS_P2;Temp;Humidity;BMP_temperature;BMP_pressure;BME280_temperature;BME280_humidity;BME280_pressure;Samples;Min_cycle;Max_cycle;Signal;HPM_P1;HPM_P2
2020/10/24 00:00:02;;;;;;;3.75;1.7;;;;;;;12.32;97.07617;95171.47;;;;
2020/10/24 00:01:04;;;;;;;3.75;1.7;;;;;;;12.32;97.07617;95171.47;;;;
2020/10/24 00:02:05;;;;;;;3.75;1.7;;;;;;;12.32;97.07617;95171.47;;;;
2020/10/24 00:03:06;;;;;;;3.75;1.7;;;;;;;12.32;97.07617;95171.47;;;;
2020/10/24 00:04:06;;;;;;;3.75;1.7;;;;;;;12.32;97.07617;95171.47;;;;
2020/10/24 00:05:07;;;;;;;3.75;1.7;;;;;;;12.32;97.07617;95171.47;;;;
2020/10/24 00:06:08;;;;;;;3.75;1.7;;;;;;;12.32;97.07617;95171.47;;;;
2020/10/24 00:07:10;;;;;;;3.75;1.7;;;;;;;12.32;97.07617;95171.47;;;;
2020/10/24 00:08:10;;;;;;;3.75;1.7;;;;;;;12.32;97.07617;95171.47;;;;
2020/10/24 00:09:11;;;;;;;1.6;1.5;;;;;;;12.22;98.22656;95174.02;;;;
2020/10/24 00:10:11;;;;;;;1.6;1.5;;;;;;;12.22;98.22656;95174.02;;;;
2020/10/24 00:11:12;;;;;;;1.6;1.5;;;;;;;12.22;98.22656;95174.02;;;;
2020/10/24 00:12:13;;;;;;;1.6;1.5;;;;;;;12.22;98.22656;95174.02;;;;
2020/10/24 00:13:13;;;;;;;1.6;1.5;;;;;;;12.22;98.22656;95174.02;;;;
2020/10/24 00:14:14;;;;;;;1.6;1.5;;;;;;;12.22;98.22656;95174.02;;;;
2020/10/24 00:15:17;;;;;;;1.6;1.5;;;;;;;12.22;98.22656;95174.02;;;;
2020/10/24 00:16:18;;;;;;;1.6;1.5;;;;;;;12.22;98.22656;95174.02;;;;
2020/10/24 00:17:18;;;;;;;1.6;1.5;;;;;;;12.22;98.22656;95174.02;;;;
2020/10/24 00:18:19;;;;;;;1.6;1.5;;;;;;;12.22;98.22656;95174.02;;;;
2020/10/24 00:19:19;;;;;;;1.6;1.5;;;;;;;12.22;98.22656;95174.02;;;;
2020/10/24 00:20:21;;;;;;;2.900001;1.9;;;;;;;12.18;98.74023;95172.48;;;;
2020/10/24 00:21:21;;;;;;;2.900001;1.9;;;;;;;12.18;98.74023;95172.48;;;;
2020/10/24 00:22:22;;;;;;;2.900001;1.9;;;;;;;12.18;98.74023;95172.48;;;;
2020/10/24 00:23:23;;;;;;;2.900001;1.9;;;;;;;12.18;98.74023;95172.48;;;;
2020/10/24 00:24:23;;;;;;;2.900001;1.9;;;;;;;12.18;98.74023;95172.48;;;;
2020/10/24 00:25:24;;;;;;;2.900001;1.9;;;;;;;12.18;98.74023;95172.48;;;;
2020/10/24 00:26:24;;;;;;;2.900001;1.9;;;;;;;12.18;98.74023;95172.48;;;;
2020/10/24 00:27:25;;;;;;;2.900001;1.9;;;;;;;12.18;98.74023;95172.48;;;;
2020/10/24 00:28:25;;;;;;;2.900001;1.9;;;;;;;12.18;98.74023;95172.48;;;;
2020/10/24 00:29:26;;;;;;;2.900001;1.9;;;;;;;12.18;98.74023;95172.48;;;;
2020/10/24 00:30:26;;;;;;;2.3;2;;;;;;;12.09;99.73438;95168.97;;;;
2020/10/24 00:31:27;;;;;;;2.3;2;;;;;;;12.09;99.73438;95168.97;;;;
2020/10/24 00:32:27;;;;;;;2.3;2;;;;;;;12.09;99.73438;95168.97;;;;
2020/10/24 00:33:29;;;;;;;2.3;2;;;;;;;12.09;99.73438;95168.97;;;;
2020/10/24 00:34:29;;;;;;;2.3;2;;;;;;;12.09;99.73438;95168.97;;;;
2020/10/24 00:35:30;;;;;;;2.3;2;;;;;;;12.09;99.73438;95168.97;;;;
2020/10/24 00:36:30;;;;;;;2.3;2;;;;;;;12.09;99.73438;95168.97;;;;
2020/10/24 00:37:31;;;;;;;2.3;2;;;;;;;12.09;99.73438;95168.97;;;;
2020/10/24 00:38:31;;;;;;;2.3;2;;;;;;;12.09;99.73438;95168.97;;;;
2020/10/24 00:39:32;;;;;;;2.3;2;;;;;;;12.09;99.73438;95168.97;;;;
2020/10/24 00:40:33;;;;;;;2.3;2;;;;;;;12.09;99.73438;95168.97;;;;
2020/10/24 00:41:36;;;;;;;2.1;1.7;;;;;;;12.05;100;95176.34;;;;
2020/10/24 00:42:36;;;;;;;2.1;1.7;;;;;;;12.05;100;95176.34;;;;
2020/10/24 00:43:37;;;;;;;2.1;1.7;;;;;;;12.05;100;95176.34;;;;
2020/10/24 00:44:47;;;;;;;2.1;1.7;;;;;;;12.05;100;95176.34;;;;
2020/10/24 00:46:16;;;;;;;2.1;1.7;;;;;;;12.05;100;95176.34;;;;
2020/10/24 00:47:19;;;;;;;2.1;1.7;;;;;;;12.05;100;95176.34;;;;
2020/10/24 00:48:27;;;;;;;2.1;1.7;;;;;;;12.05;100;95176.34;;;;
2020/10/24 00:49:28;;;;;;;2.1;1.7;;;;;;;12.05;100;95176.34;;;;
2020/10/24 00:50:29;;;;;;;2.1;1.7;;;;;;;12.05;100;95176.34;;;;
2020/10/24 00:51:33;;;;;;;2.1;1.7;;;;;;;12.05;100;95176.34;;;;
2020/10/24 00:52:33;;;;;;;1.8;1.7;;;;;;;11.97;100;95168.22;;;;
2020/10/24 00:53:34;;;;;;;1.8;1.7;;;;;;;11.97;100;95168.22;;;;
2020/10/24 00:54:35;;;;;;;1.8;1.7;;;;;;;11.97;100;95168.22;;;;
2020/10/24 00:55:35;;;;;;;1.8;1.7;;;;;;;11.97;100;95168.22;;;;
2020/10/24 00:56:36;;;;;;;1.8;1.7;;;;;;;11.97;100;95168.22;;;;
2020/10/24 00:57:37;;;;;;;1.8;1.7;;;;;;;11.97;100;95168.22;;;;
2020/10/24 00:58:42;;;;;;;1.8;1.7;;;;;;;11.97;100;95168.22;;;;
2020/10/24 01:00:00;;;;;;;1.8;1.7;;;;;;;11.97;100;95168.22;;;;
2020/10/24 01:01:07;;;;;;;1.8;1.7;;;;;;;11.97;100;95168.22;;;;
2020/10/24 01:02:20;;;;;;;2.1;1.9;;;;;;;11.93;100;95165.6;;;;
2020/10/24 01:03:22;;;;;;;2.1;1.9;;;;;;;11.93;100;95165.6;;;;
2020/10/24 01:04:31;;;;;;;2.1;1.9;;;;;;;11.93;100;95165.6;;;;
2020/10/24 01:05:42;;;;;;;2.1;1.9;;;;;;;11.93;100;95165.6;;;;
2020/10/24 01:06:44;;;;;;;2.1;1.9;;;;;;;11.93;100;95165.6;;;;
2020/10/24 01:07:45;;;;;;;2.1;1.9;;;;;;;11.93;100;95165.6;;;;
2020/10/24 01:08:47;;;;;;;2.1;1.9;;;;;;;11.93;100;95165.6;;;;
2020/10/24 01:10:00;;;;;;;2.1;1.9;;;;;;;11.93;100;95165.6;;;;
2020/10/24 01:11:00;;;;;;;2.1;1.9;;;;;;;11.93;100;95165.6;;;;
2020/10/24 01:12:04;;;;;;;2.1;1.9;;;;;;;11.93;100;95165.6;;;;
2020/10/24 01:13:05;;;;;;;2.2;1.9;;;;;;;11.86;100;95164.12;;;;
2020/10/24 01:14:05;;;;;;;2.2;1.9;;;;;;;11.86;100;95164.12;;;;
2020/10/24 01:15:06;;;;;;;2.2;1.9;;;;;;;11.86;100;95164.12;;;;
2020/10/24 01:16:06;;;;;;;2.2;1.9;;;;;;;11.86;100;95164.12;;;;
2020/10/24 01:17:07;;;;;;;2.2;1.9;;;;;;;11.86;100;95164.12;;;;
2020/10/24 01:18:08;;;;;;;2.2;1.9;;;;;;;11.86;100;95164.12;;;;
2020/10/24 01:19:14;;;;;;;2.2;1.9;;;;;;;11.86;100;95164.12;;;;
2020/10/24 01:20:23;;;;;;;2.2;1.9;;;;;;;11.86;100;95164.12;;;;
2020/10/24 01:21:27;;;;;;;2.2;1.9;;;;;;;11.86;100;95164.12;;;;
2020/10/24 01:22:28;;;;;;;2.2;1.9;;;;;;;11.86;100;95164.12;;;;
2020/10/24 01:23:35;;;;;;;2.2;1.9;;;;;;;11.86;100;95164.12;;;;
2020/10/24 01:24:41;;;;;;;2.1;1.9;;;;;;;11.88;100;95163.76;;;;
2020/10/24 01:25:42;;;;;;;2.1;1.9;;;;;;;11.88;100;95163.76;;;;
2020/10/24 01:26:42;;;;;;;2.1;1.9;;;;;;;11.88;100;95163.76;;;;
2020/10/24 01:27:43;;;;;;;2.1;1.9;;;;;;;11.88;100;95163.76;;;;
2020/10/24 01:28:43;;;;;;;2.1;1.9;;;;;;;11.88;100;95163.76;;;;
2020/10/24 01:29:45;;;;;;;2.1;1.9;;;;;;;11.88;100;95163.76;;;;
2020/10/24 01:30:46;;;;;;;2.1;1.9;;;;;;;11.88;100;95163.76;;;;
2020/10/24 01:31:46;;;;;;;2.1;1.9;;;;;;;11.88;100;95163.76;;;;
2020/10/24 01:32:47;;;;;;;2.1;1.9;;;;;;;11.88;100;95163.76;;;;
2020/10/24 01:33:48;;;;;;;2.1;1.9;;;;;;;11.88;100;95163.76;;;;
2020/10/24 01:34:48;;;;;;;2.849999;2.05;;;;;;;11.84;100;95168.55;;;;
2020/10/24 01:35:49;;;;;;;2.849999;2.05;;;;;;;11.84;100;95168.55;;;;
2020/10/24 01:36:49;;;;;;;2.849999;2.05;;;;;;;11.84;100;95168.55;;;;
2020/10/24 01:37:50;;;;;;;2.849999;2.05;;;;;;;11.84;100;95168.55;;;;
2020/10/24 01:38:51;;;;;;;2.849999;2.05;;;;;;;11.84;100;95168.55;;;;
2020/10/24 01:39:51;;;;;;;2.849999;2.05;;;;;;;11.84;100;95168.55;;;;
2020/10/24 01:40:52;;;;;;;2.849999;2.05;;;;;;;11.84;100;95168.55;;;;
2020/10/24 01:41:53;;;;;;;2.849999;2.05;;;;;;;11.84;100;95168.55;;;;
2020/10/24 01:42:54;;;;;;;2.849999;2.05;;;;;;;11.84;100;95168.55;;;;
2020/10/24 01:43:54;;;;;;;2.849999;2.05;;;;;;;11.84;100;95168.55;;;;
2020/10/24 01:44:55;;;;;;;2.849999;2.05;;;;;;;11.84;100;95168.55;;;;
2020/10/24 01:45:55;;;;;;;2.25;1.75;;;;;;;11.84;100;95166.67;;;;
2020/10/24 01:46:56;;;;;;;2.25;1.75;;;;;;;11.84;100;95166.67;;;;
2020/10/24 01:47:57;;;;;;;2.25;1.75;;;;;;;11.84;100;95166.67;;;;
2020/10/24 01:48:57;;;;;;;2.25;1.75;;;;;;;11.84;100;95166.67;;;;
2020/10/24 01:49:58;;;;;;;2.25;1.75;;;;;;;11.84;100;95166.67;;;;
2020/10/24 01:51:03;;;;;;;2.25;1.75;;;;;;;11.84;100;95166.67;;;;
2020/10/24 01:52:04;;;;;;;2.25;1.75;;;;;;;11.84;100;95166.67;;;;
2020/10/24 01:53:05;;;;;;;2.25;1.75;;;;;;;11.84;100;95166.67;;;;
2020/10/24 01:54:06;;;;;;;2.25;1.75;;;;;;;11.84;100;95166.67;;;;
2020/10/24 01:55:07;;;;;;;2.25;1.75;;;;;;;11.84;100;95166.67;;;;
2020/10/24 01:56:07;;;;;;;2.6;1.9;;;;;;;11.78;100;95177.51;;;;
2020/10/24 01:57:08;;;;;;;2.6;1.9;;;;;;;11.78;100;95177.51;;;;
2020/10/24 01:58:09;;;;;;;2.6;1.9;;;;;;;11.78;100;95177.51;;;;
2020/10/24 01:59:09;;;;;;;2.6;1.9;;;;;;;11.78;100;95177.51;;;;
2020/10/24 02:00:10;;;;;;;2.6;1.9;;;;;;;11.78;100;95177.51;;;;
2020/10/24 02:01:10;;;;;;;2.6;1.9;;;;;;;11.78;100;95177.51;;;;
2020/10/24 02:02:11;;;;;;;2.6;1.9;;;;;;;11.78;100;95177.51;;;;
2020/10/24 02:03:13;;;;;;;2.6;1.9;;;;;;;11.78;100;95177.51;;;;
2020/10/24 02:04:13;;;;;;;2.6;1.9;;;;;;;11.78;100;95177.51;;;;
2020/10/24 02:05:14;;;;;;;2.6;1.9;;;;;;;11.78;100;95177.51;;;;
2020/10/24 02:06:15;;;;;;;2.900001;2.15;;;;;;;11.85;100;95171.03;;;;
2020/10/24 02:07:15;;;;;;;2.900001;2.15;;;;;;;11.85;100;95171.03;;;;
2020/10/24 02:08:17;;;;;;;2.900001;2.15;;;;;;;11.85;100;95171.03;;;;
2020/10/24 02:09:17;;;;;;;2.900001;2.15;;;;;;;11.85;100;95171.03;;;;
2020/10/24 02:10:21;;;;;;;2.900001;2.15;;;;;;;11.85;100;95171.03;;;;
2020/10/24 02:11:22;;;;;;;2.900001;2.15;;;;;;;11.85;100;95171.03;;;;
2020/10/24 02:12:22;;;;;;;2.900001;2.15;;;;;;;11.85;100;95171.03;;;;
2020/10/24 02:13:23;;;;;;;2.900001;2.15;;;;;;;11.85;100;95171.03;;;;
2020/10/24 02:14:23;;;;;;;2.900001;2.15;;;;;;;11.85;100;95171.03;;;;
2020/10/24 02:15:24;;;;;;;2.900001;2.15;;;;;;;11.85;100;95171.03;;;;
2020/10/24 02:16:24;;;;;;;2.900001;2.15;;;;;;;11.85;100;95171.03;;;;
2020/10/24 02:17:25;;;;;;;2.65;1.9;;;;;;;11.86;100;95169.53;;;;
2020/10/24 02:18:26;;;;;;;2.65;1.9;;;;;;;11.86;100;95169.53;;;;
2020/10/24 02:19:26;;;;;;;2.65;1.9;;;;;;;11.86;100;95169.53;;;;
2020/10/24 02:20:27;;;;;;;2.65;1.9;;;;;;;11.86;100;95169.53;;;;
2020/10/24 02:21:27;;;;;;;2.65;1.9;;;;;;;11.86;100;95169.53;;;;
2020/10/24 02:22:28;;;;;;;2.65;1.9;;;;;;;11.86;100;95169.53;;;;
2020/10/24 02:23:28;;;;;;;2.65;1.9;;;;;;;11.86;100;95169.53;;;;
2020/10/24 02:24:29;;;;;;;2.65;1.9;;;;;;;11.86;100;95169.53;;;;
2020/10/24 02:25:29;;;;;;;2.65;1.9;;;;;;;11.86;100;95169.53;;;;
2020/10/24 02:26:30;;;;;;;2.65;1.9;;;;;;;11.86;100;95169.53;;;;
2020/10/24 02:27:30;;;;;;;2.65;1.9;;;;;;;11.86;100;95169.53;;;;
2020/10/24 02:28:31;;;;;;;2.45;1.9;;;;;;;11.92;100;95182.09;;;;
2020/10/24 02:29:31;;;;;;;2.45;1.9;;;;;;;11.92;100;95182.09;;;;
2020/10/24 02:30:32;;;;;;;2.45;1.9;;;;;;;11.92;100;95182.09;;;;
2020/10/24 02:31:32;;;;;;;2.45;1.9;;;;;;;11.92;100;95182.09;;;;
2020/10/24 02:32:33;;;;;;;2.45;1.9;;;;;;;11.92;100;95182.09;;;;
2020/10/24 02:33:34;;;;;;;2.45;1.9;;;;;;;11.92;100;95182.09;;;;
2020/10/24 02:34:34;;;;;;;2.45;1.9;;;;;;;11.92;100;95182.09;;;;
2020/10/24 02:35:35;;;;;;;2.45;1.9;;;;;;;11.92;100;95182.09;;;;
2020/10/24 02:36:36;;;;;;;2.45;1.9;;;;;;;11.92;100;95182.09;;;;
2020/10/24 02:37:36;;;;;;;2.45;1.9;;;;;;;11.92;100;95182.09;;;;
2020/10/24 02:38:37;;;;;;;1.9;1.75;;;;;;;11.91;100;95185.46;;;;
2020/10/24 02:39:37;;;;;;;1.9;1.75;;;;;;;11.91;100;95185.46;;;;
2020/10/24 02:40:38;;;;;;;1.9;1.75;;;;;;;11.91;100;95185.46;;;;
2020/10/24 02:41:39;;;;;;;1.9;1.75;;;;;;;11.91;100;95185.46;;;;
2020/10/24 02:42:39;;;;;;;1.9;1.75;;;;;;;11.91;100;95185.46;;;;
2020/10/24 02:43:40;;;;;;;1.9;1.75;;;;;;;11.91;100;95185.46;;;;
2020/10/24 02:44:40;;;;;;;1.9;1.75;;;;;;;11.91;100;95185.46;;;;
2020/10/24 02:45:41;;;;;;;1.9;1.75;;;;;;;11.91;100;95185.46;;;;
2020/10/24 02:46:42;;;;;;;1.9;1.75;;;;;;;11.91;100;95185.46;;;;
2020/10/24 02:47:43;;;;;;;1.9;1.75;;;;;;;11.91;100;95185.46;;;;
2020/10/24 02:48:44;;;;;;;1.9;1.75;;;;;;;11.91;100;95185.46;;;;
2020/10/24 02:49:44;;;;;;;2.1;1.85;;;;;;;11.92;100;95192.91;;;;
2020/10/24 02:50:45;;;;;;;2.1;1.85;;;;;;;11.92;100;95192.91;;;;
2020/10/24 02:51:45;;;;;;;2.1;1.85;;;;;;;11.92;100;95192.91;;;;
2020/10/24 02:52:47;;;;;;;2.1;1.85;;;;;;;11.92;100;95192.91;;;;
2020/10/24 02:53:48;;;;;;;2.1;1.85;;;;;;;11.92;100;95192.91;;;;
2020/10/24 02:54:49;;;;;;;2.1;1.85;;;;;;;11.92;100;95192.91;;;;
2020/10/24 02:55:49;;;;;;;2.1;1.85;;;;;;;11.92;100;95192.91;;;;
2020/10/24 02:56:50;;;;;;;2.1;1.85;;;;;;;11.92;100;95192.91;;;;
2020/10/24 02:57:50;;;;;;;2.1;1.85;;;;;;;11.92;100;95192.91;;;;
2020/10/24 02:58:51;;;;;;;2.1;1.85;;;;;;;11.92;100;95192.91;;;;
2020/10/24 02:59:51;;;;;;;2.8;2;;;;;;;11.86;100;95187.95;;;;
2020/10/24 03:00:52;;;;;;;2.8;2;;;;;;;11.86;100;95187.95;;;;
2020/10/24 03:01:53;;;;;;;2.8;2;;;;;;;11.86;100;95187.95;;;;
2020/10/24 03:03:07;;;;;;;2.8;2;;;;;;;11.86;100;95187.95;;;;
2020/10/24 03:04:08;;;;;;;2.8;2;;;;;;;11.86;100;95187.95;;;;
2020/10/24 03:05:09;;;;;;;2.8;2;;;;;;;11.86;100;95187.95;;;;
2020/10/24 03:06:10;;;;;;;2.8;2;;;;;;;11.86;100;95187.95;;;;
2020/10/24 03:07:11;;;;;;;2.8;2;;;;;;;11.86;100;95187.95;;;;
2020/10/24 03:08:11;;;;;;;2.8;2;;;;;;;11.86;100;95187.95;;;;
2020/10/24 03:09:13;;;;;;;2.8;2;;;;;;;11.86;100;95187.95;;;;
2020/10/24 03:10:13;;;;;;;2.8;2;;;;;;;11.86;100;95187.95;;;;
2020/10/24 03:11:14;;;;;;;2.35;2.15;;;;;;;11.88;100;95189.98;;;;
2020/10/24 03:12:14;;;;;;;2.35;2.15;;;;;;;11.88;100;95189.98;;;;
2020/10/24 03:13:15;;;;;;;2.35;2.15;;;;;;;11.88;100;95189.98;;;;
2020/10/24 03:14:16;;;;;;;2.35;2.15;;;;;;;11.88;100;95189.98;;;;
2020/10/24 03:15:16;;;;;;;2.35;2.15;;;;;;;11.88;100;95189.98;;;;
2020/10/24 03:16:17;;;;;;;2.35;2.15;;;;;;;11.88;100;95189.98;;;;
2020/10/24 03:17:17;;;;;;;2.35;2.15;;;;;;;11.88;100;95189.98;;;;
2020/10/24 03:18:18;;;;;;;2.35;2.15;;;;;;;11.88;100;95189.98;;;;
2020/10/24 03:19:18;;;;;;;2.35;2.15;;;;;;;11.88;100;95189.98;;;;
2020/10/24 03:20:19;;;;;;;2.35;2.15;;;;;;;11.88;100;95189.98;;;;
2020/10/24 03:21:19;;;;;;;2.2;2;;;;;;;11.83;100;95188.56;;;;
2020/10/24 03:22:20;;;;;;;2.2;2;;;;;;;11.83;100;95188.56;;;;
2020/10/24 03:23:20;;;;;;;2.2;2;;;;;;;11.83;100;95188.56;;;;
2020/10/24 03:24:21;;;;;;;2.2;2;;;;;;;11.83;100;95188.56;;;;
2020/10/24 03:25:21;;;;;;;2.2;2;;;;;;;11.83;100;95188.56;;;;
2020/10/24 03:26:22;;;;;;;2.2;2;;;;;;;11.83;100;95188.56;;;;
2020/10/24 03:27:23;;;;;;;2.2;2;;;;;;;11.83;100;95188.56;;;;
2020/10/24 03:28:23;;;;;;;2.2;2;;;;;;;11.83;100;95188.56;;;;
2020/10/24 03:29:24;;;;;;;2.2;2;;;;;;;11.83;100;95188.56;;;;
2020/10/24 03:30:24;;;;;;;2.2;2;;;;;;;11.83;100;95188.56;;;;
2020/10/24 03:31:25;;;;;;;2.2;2;;;;;;;11.83;100;95188.56;;;;
2020/10/24 03:32:25;;;;;;;1.9;1.8;;;;;;;11.84;100;95192.36;;;;
2020/10/24 03:33:26;;;;;;;1.9;1.8;;;;;;;11.84;100;95192.36;;;;
2020/10/24 03:34:26;;;;;;;1.9;1.8;;;;;;;11.84;100;95192.36;;;;
2020/10/24 03:35:27;;;;;;;1.9;1.8;;;;;;;11.84;100;95192.36;;;;
2020/10/24 03:36:28;;;;;;;1.9;1.8;;;;;;;11.84;100;95192.36;;;;
2020/10/24 03:37:28;;;;;;;1.9;1.8;;;;;;;11.84;100;95192.36;;;;
2020/10/24 03:38:29;;;;;;;1.9;1.8;;;;;;;11.84;100;95192.36;;;;
2020/10/24 03:39:30;;;;;;;1.9;1.8;;;;;;;11.84;100;95192.36;;;;
2020/10/24 03:40:30;;;;;;;1.9;1.8;;;;;;;11.84;100;95192.36;;;;
2020/10/24 03:41:31;;;;;;;1.9;1.8;;;;;;;11.84;100;95192.36;;;;
2020/10/24 03:42:33;;;;;;;2.15;1.95;;;;;;;11.79;100;95198.64;;;;
2020/10/24 03:43:35;;;;;;;2.15;1.95;;;;;;;11.79;100;95198.64;;;;
2020/10/24 03:44:35;;;;;;;2.15;1.95;;;;;;;11.79;100;95198.64;;;;
2020/10/24 03:45:36;;;;;;;2.15;1.95;;;;;;;11.79;100;95198.64;;;;
2020/10/24 03:46:37;;;;;;;2.15;1.95;;;;;;;11.79;100;95198.64;;;;
2020/10/24 03:47:50;;;;;;;2.15;1.95;;;;;;;11.79;100;95198.64;;;;
2020/10/24 03:49:03;;;;;;;2.15;1.95;;;;;;;11.79;100;95198.64;;;;
2020/10/24 03:50:09;;;;;;;2.15;1.95;;;;;;;11.79;100;95198.64;;;;
2020/10/24 03:51:21;;;;;;;2.15;1.95;;;;;;;11.79;100;95198.64;;;;
2020/10/24 03:52:22;;;;;;;2.15;1.95;;;;;;;11.79;100;95198.64;;;;
2020/10/24 03:53:27;;;;;;;2.35;1.7;;;;;;;11.78;100;95209.59;;;;
2020/10/24 03:54:32;;;;;;;2.35;1.7;;;;;;;11.78;100;95209.59;;;;
2020/10/24 03:55:35;;;;;;;2.35;1.7;;;;;;;11.78;100;95209.59;;;;
2020/10/24 03:56:40;;;;;;;2.35;1.7;;;;;;;11.78;100;95209.59;;;;
2020/10/24 03:57:50;;;;;;;2.35;1.7;;;;;;;11.78;100;95209.59;;;;
2020/10/24 03:58:52;;;;;;;2.35;1.7;;;;;;;11.78;100;95209.59;;;;
2020/10/24 04:00:17;;;;;;;2.35;1.7;;;;;;;11.78;100;95209.59;;;;
2020/10/24 04:01:27;;;;;;;2.35;1.7;;;;;;;11.78;100;95209.59;;;;
2020/10/24 04:02:28;;;;;;;2.35;1.7;;;;;;;11.78;100;95209.59;;;;
2020/10/24 04:03:32;;;;;;;2.35;1.7;;;;;;;11.78;100;95209.59;;;;
2020/10/24 04:04:32;;;;;;;1.9;1.6;;;;;;;11.73;100;95220.72;;;;
2020/10/24 04:05:33;;;;;;;1.9;1.6;;;;;;;11.73;100;95220.72;;;;
2020/10/24 04:06:34;;;;;;;1.9;1.6;;;;;;;11.73;100;95220.72;;;;
2020/10/24 04:07:35;;;;;;;1.9;1.6;;;;;;;11.73;100;95220.72;;;;
2020/10/24 04:08:35;;;;;;;1.9;1.6;;;;;;;11.73;100;95220.72;;;;
2020/10/24 04:09:42;;;;;;;1.9;1.6;;;;;;;11.73;100;95220.72;;;;
2020/10/24 04:10:42;;;;;;;1.9;1.6;;;;;;;11.73;100;95220.72;;;;
2020/10/24 04:11:45;;;;;;;1.9;1.6;;;;;;;11.73;100;95220.72;;;;
2020/10/24 04:12:51;;;;;;;1.9;1.6;;;;;;;11.73;100;95220.72;;;;
2020/10/24 04:13:53;;;;;;;1.9;1.6;;;;;;;11.73;100;95220.72;;;;
2020/10/24 04:14:59;;;;;;;1.85;1.7;;;;;;;11.73;100;95232.89;;;;
2020/10/24 04:16:00;;;;;;;1.85;1.7;;;;;;;11.73;100;95232.89;;;;
2020/10/24 04:17:32;;;;;;;1.85;1.7;;;;;;;11.73;100;95232.89;;;;
2020/10/24 04:18:33;;;;;;;1.85;1.7;;;;;;;11.73;100;95232.89;;;;
2020/10/24 04:19:44;;;;;;;1.85;1.7;;;;;;;11.73;100;95232.89;;;;
2020/10/24 04:20:51;;;;;;;1.85;1.7;;;;;;;11.73;100;95232.89;;;;
2020/10/24 04:21:59;;;;;;;1.85;1.7;;;;;;;11.73;100;95232.89;;;;
2020/10/24 04:23:03;;;;;;;1.85;1.7;;;;;;;11.73;100;95232.89;;;;
2020/10/24 04:24:18;;;;;;;1.85;1.7;;;;;;;11.73;100;95232.89;;;;
2020/10/24 04:25:21;;;;;;;1.85;1.7;;;;;;;11.67;100;95242.94;;;;
2020/10/24 04:26:22;;;;;;;1.85;1.7;;;;;;;11.67;100;95242.94;;;;
2020/10/24 04:27:32;;;;;;;1.85;1.7;;;;;;;11.67;100;95242.94;;;;
2020/10/24 04:28:33;;;;;;;1.85;1.7;;;;;;;11.67;100;95242.94;;;;
2020/10/24 04:29:46;;;;;;;1.85;1.7;;;;;;;11.67;100;95242.94;;;;
2020/10/24 04:30:59;;;;;;;1.85;1.7;;;;;;;11.67;100;95242.94;;;;
2020/10/24 04:32:05;;;;;;;1.85;1.7;;;;;;;11.67;100;95242.94;;;;
2020/10/24 04:33:15;;;;;;;1.85;1.7;;;;;;;11.67;100;95242.94;;;;
2020/10/24 04:34:24;;;;;;;1.85;1.7;;;;;;;11.67;100;95242.94;;;;
2020/10/24 04:35:25;;;;;;;1.85;1.7;;;;;;;11.67;100;95242.94;;;;
2020/10/24 04:36:25;;;;;;;1.9;1.8;;;;;;;11.67;100;95240.76;;;;
2020/10/24 04:37:36;;;;;;;1.9;1.8;;;;;;;11.67;100;95240.76;;;;
2020/10/24 04:38:47;;;;;;;1.9;1.8;;;;;;;11.67;100;95240.76;;;;
2020/10/24 04:39:47;;;;;;;1.9;1.8;;;;;;;11.67;100;95240.76;;;;
2020/10/24 04:40:49;;;;;;;1.9;1.8;;;;;;;11.67;100;95240.76;;;;
2020/10/24 04:41:52;;;;;;;1.9;1.8;;;;;;;11.67;100;95240.76;;;;
2020/10/24 04:43:00;;;;;;;1.9;1.8;;;;;;;11.67;100;95240.76;;;;
2020/10/24 04:44:05;;;;;;;1.9;1.8;;;;;;;11.67;100;95240.76;;;;
2020/10/24 04:45:14;;;;;;;1.9;1.8;;;;;;;11.67;100;95240.76;;;;
2020/10/24 04:46:20;;;;;;;2.75;1.7;;;;;;;11.6;100;95244.95;;;;
2020/10/24 04:47:35;;;;;;;2.75;1.7;;;;;;;11.6;100;95244.95;;;;
2020/10/24 04:48:39;;;;;;;2.75;1.7;;;;;;;11.6;100;95244.95;;;;
2020/10/24 04:49:40;;;;;;;2.75;1.7;;;;;;;11.6;100;95244.95;;;;
2020/10/24 04:50:42;;;;;;;2.75;1.7;;;;;;;11.6;100;95244.95;;;;
2020/10/24 04:51:45;;;;;;;2.75;1.7;;;;;;;11.6;100;95244.95;;;;
2020/10/24 04:52:57;;;;;;;2.75;1.7;;;;;;;11.6;100;95244.95;;;;
2020/10/24 04:54:00;;;;;;;2.75;1.7;;;;;;;11.6;100;95244.95;;;;
2020/10/24 04:55:22;;;;;;;2.75;1.7;;;;;;;11.6;100;95244.95;;;;
2020/10/24 04:56:28;;;;;;;2.75;1.7;;;;;;;11.6;100;95244.95;;;;
2020/10/24 04:57:35;;;;;;;2;1.7;;;;;;;11.61;100;95237.52;;;;
2020/10/24 04:58:51;;;;;;;2;1.7;;;;;;;11.61;100;95237.52;;;;
2020/10/24 05:00:09;;;;;;;2;1.7;;;;;;;11.61;100;95237.52;;;;
2020/10/24 05:01:17;;;;;;;2;1.7;;;;;;;11.61;100;95237.52;;;;
2020/10/24 05:02:20;;;;;;;2;1.7;;;;;;;11.61;100;95237.52;;;;
2020/10/24 05:03:31;;;;;;;2;1.7;;;;;;;11.61;100;95237.52;;;;
2020/10/24 05:04:47;;;;;;;2;1.7;;;;;;;11.61;100;95237.52;;;;
2020/10/24 05:05:57;;;;;;;2;1.7;;;;;;;11.61;100;95237.52;;;;
2020/10/24 05:07:08;;;;;;;2;1.7;;;;;;;11.61;100;95237.52;;;;
2020/10/24 05:08:13;;;;;;;2.6;1.8;;;;;;;11.56;100;95242.43;;;;
2020/10/24 05:09:33;;;;;;;2.6;1.8;;;;;;;11.56;100;95242.43;;;;
2020/10/24 05:10:45;;;;;;;2.6;1.8;;;;;;;11.56;100;95242.43;;;;
2020/10/24 05:11:56;;;;;;;2.6;1.8;;;;;;;11.56;100;95242.43;;;;
2020/10/24 05:12:59;;;;;;;2.6;1.8;;;;;;;11.56;100;95242.43;;;;
2020/10/24 05:14:25;;;;;;;2.6;1.8;;;;;;;11.56;100;95242.43;;;;
2020/10/24 05:16:43;;;;;;;2.6;1.8;;;;;;;11.56;100;95242.43;;;;
2020/10/24 05:17:48;;;;;;;2.6;1.8;;;;;;;11.56;100;95242.43;;;;
2020/10/24 05:18:56;;;;;;;3.699999;2;;;;;;;11.57;100;95240.94;;;;
2020/10/24 05:21:11;;;;;;;3.699999;2;;;;;;;11.57;100;95240.94;;;;
2020/10/24 05:22:37;;;;;;;3.699999;2;;;;;;;11.57;100;95240.94;;;;
2020/10/24 05:23:59;;;;;;;3.699999;2;;;;;;;11.57;100;95240.94;;;;
2020/10/24 05:25:26;;;;;;;3.699999;2;;;;;;;11.57;100;95240.94;;;;
2020/10/24 05:26:37;;;;;;;3.699999;2;;;;;;;11.57;100;95240.94;;;;
2020/10/24 05:27:55;;;;;;;3.699999;2;;;;;;;11.57;100;95240.94;;;;
2020/10/24 05:29:06;;;;;;;1.95;1.65;;;;;;;11.52;100;95246.67;;;;
2020/10/24 05:30:28;;;;;;;1.95;1.65;;;;;;;11.52;100;95246.67;;;;
2020/10/24 05:31:44;;;;;;;1.95;1.65;;;;;;;11.52;100;95246.67;;;;
2020/10/24 05:33:00;;;;;;;1.95;1.65;;;;;;;11.52;100;95246.67;;;;
2020/10/24 05:34:39;;;;;;;1.95;1.65;;;;;;;11.52;100;95246.67;;;;
2020/10/24 05:40:02;;;;;;;2.05;1.75;;;;;;;11.54;100;95251.31;;;;
2020/10/24 05:41:06;;;;;;;2.05;1.75;;;;;;;11.54;100;95251.31;;;;
2020/10/24 05:42:09;;;;;;;2.05;1.75;;;;;;;11.54;100;95251.31;;;;
2020/10/24 05:43:22;;;;;;;2.05;1.75;;;;;;;11.54;100;95251.31;;;;
2020/10/24 05:44:26;;;;;;;2.05;1.75;;;;;;;11.54;100;95251.31;;;;
2020/10/24 05:45:32;;;;;;;2.05;1.75;;;;;;;11.54;100;95251.31;;;;
2020/10/24 05:46:43;;;;;;;2.05;1.75;;;;;;;11.54;100;95251.31;;;;
2020/10/24 05:47:47;;;;;;;2.05;1.75;;;;;;;11.54;100;95251.31;;;;
2020/10/24 05:48:52;;;;;;;2.05;1.75;;;;;;;11.54;100;95251.31;;;;
2020/10/24 05:50:05;;;;;;;2.05;1.75;;;;;;;11.54;100;95251.31;;;;
2020/10/24 05:51:15;;;;;;;2.5;1.7;;;;;;;11.49;100;95264.33;;;;
2020/10/24 05:52:16;;;;;;;2.5;1.7;;;;;;;11.49;100;95264.33;;;;
2020/10/24 05:53:19;;;;;;;2.5;1.7;;;;;;;11.49;100;95264.33;;;;
2020/10/24 05:56:28;;;;;;;2.5;1.7;;;;;;;11.49;100;95264.33;;;;
2020/10/24 05:57:36;;;;;;;2.5;1.7;;;;;;;11.49;100;95264.33;;;;
2020/10/24 05:58:40;;;;;;;2.5;1.7;;;;;;;11.49;100;95264.33;;;;
2020/10/24 05:59:42;;;;;;;2.5;1.7;;;;;;;11.49;100;95264.33;;;;
2020/10/24 06:00:43;;;;;;;2.5;1.7;;;;;;;11.49;100;95264.33;;;;
2020/10/24 06:01:44;;;;;;;3.95;2.3;;;;;;;11.51;100;95274.8;;;;
2020/10/24 06:02:44;;;;;;;3.95;2.3;;;;;;;11.51;100;95274.8;;;;
2020/10/24 06:03:45;;;;;;;3.95;2.3;;;;;;;11.51;100;95274.8;;;;
2020/10/24 06:04:45;;;;;;;3.95;2.3;;;;;;;11.51;100;95274.8;;;;
2020/10/24 06:05:50;;;;;;;3.95;2.3;;;;;;;11.51;100;95274.8;;;;
2020/10/24 06:06:52;;;;;;;3.95;2.3;;;;;;;11.51;100;95274.8;;;;
2020/10/24 06:07:52;;;;;;;3.95;2.3;;;;;;;11.51;100;95274.8;;;;
2020/10/24 06:08:53;;;;;;;3.95;2.3;;;;;;;11.51;100;95274.8;;;;
2020/10/24 06:09:56;;;;;;;3.95;2.3;;;;;;;11.51;100;95274.8;;;;
2020/10/24 06:10:59;;;;;;;3.95;2.3;;;;;;;11.51;100;95274.8;;;;
2020/10/24 06:12:10;;;;;;;2.55;2.1;;;;;;;11.49;100;95298.13;;;;
2020/10/24 06:13:17;;;;;;;2.55;2.1;;;;;;;11.49;100;95298.13;;;;
2020/10/24 06:14:25;;;;;;;2.55;2.1;;;;;;;11.49;100;95298.13;;;;
2020/10/24 06:15:51;;;;;;;2.55;2.1;;;;;;;11.49;100;95298.13;;;;
2020/10/24 06:16:55;;;;;;;2.55;2.1;;;;;;;11.49;100;95298.13;;;;
2020/10/24 06:17:56;;;;;;;2.55;2.1;;;;;;;11.49;100;95298.13;;;;
2020/10/24 06:19:00;;;;;;;2.55;2.1;;;;;;;11.49;100;95298.13;;;;
2020/10/24 06:20:12;;;;;;;2.55;2.1;;;;;;;11.49;100;95298.13;;;;
2020/10/24 06:21:13;;;;;;;2.55;2.1;;;;;;;11.49;100;95298.13;;;;
2020/10/24 06:22:19;;;;;;;2.299999;2.1;;;;;;;11.53;100;95300.09;;;;
2020/10/24 06:23:27;;;;;;;2.299999;2.1;;;;;;;11.53;100;95300.09;;;;
2020/10/24 06:24:37;;;;;;;2.299999;2.1;;;;;;;11.53;100;95300.09;;;;
2020/10/24 06:25:42;;;;;;;2.299999;2.1;;;;;;;11.53;100;95300.09;;;;
2020/10/24 06:26:49;;;;;;;2.299999;2.1;;;;;;;11.53;100;95300.09;;;;
2020/10/24 06:28:05;;;;;;;2.299999;2.1;;;;;;;11.53;100;95300.09;;;;
2020/10/24 06:29:42;;;;;;;2.299999;2.1;;;;;;;11.53;100;95300.09;;;;
2020/10/24 06:30:50;;;;;;;2.299999;2.1;;;;;;;11.53;100;95300.09;;;;
2020/10/24 06:31:51;;;;;;;2.299999;2.1;;;;;;;11.53;100;95300.09;;;;
2020/10/24 06:32:53;;;;;;;2.299999;2.1;;;;;;;11.53;100;95300.09;;;;
2020/10/24 06:34:15;;;;;;;6.1;2.900001;;;;;;;11.52;100;95310.64;;;;
2020/10/24 06:35:28;;;;;;;6.1;2.900001;;;;;;;11.52;100;95310.64;;;;
2020/10/24 06:36:32;;;;;;;6.1;2.900001;;;;;;;11.52;100;95310.64;;;;
2020/10/24 06:37:43;;;;;;;6.1;2.900001;;;;;;;11.52;100;95310.64;;;;
2020/10/24 06:38:52;;;;;;;6.1;2.900001;;;;;;;11.52;100;95310.64;;;;
2020/10/24 06:40:14;;;;;;;6.1;2.900001;;;;;;;11.52;100;95310.64;;;;
2020/10/24 06:41:20;;;;;;;6.1;2.900001;;;;;;;11.52;100;95310.64;;;;